Date,TemperatureHighF,TemperatureAvgF,TemperatureLowF,DewpointHighF,DewpointAvgF,DewpointLowF,HumidityHigh,HumidityAvg,HumidityLow,PressureMaxIn,PressureMinIn,WindSpeedMaxMPH,WindSpeedAvgMPH,GustSpeedMaxMPH,PrecipitationSumIn
2013-12-1,36,31,27,32,26,16,100,82,60,30.29,29.95,3,0,6,0.02
2013-12-2,36,31,26,34,30,25,98,96,92,29.96,29.83,1,0,1,0.06
2013-12-3,34,33,31,33,32,29,98,96,85,29.88,29.81,2,0,2,0.01
2013-12-4,38,31,24,29,26,23,99,83,67,30.10,29.88,2,0,7,0.01
2013-12-5,43,33,23,42,31,22,98,94,87,30.11,29.76,2,0,4,0.01
2013-12-6,43,37,32,43,34,26,99,89,73,30.03,29.78,2,0,7,0.30
2013-12-7,32,27,19,27,17,11,83,65,50,30.35,29.99,6,2,12,0.00
2013-12-8,26,20,13,16,12,9,85,69,50,30.50,30.34,3,0,10,0.00
2013-12-9,33,27,21,31,23,13,95,85,70,30.40,29.75,2,0,7,0.01
2013-12-10,33,27,18,30,21,10,96,77,63,29.81,29.66,4,1,10,0.00
2013-12-11,25,20,10,19,14,6,89,77,63,30.06,29.81,5,1,12,0.00
2013-12-12,14,11,8,10,4,1,83,74,57,30.09,29.87,4,0,7,0.00
2013-12-13,17,14,5,13,7,-4,89,74,54,30.16,29.79,5,2,12,0.00
2013-12-14,9,5,-6,6,-2,-10,89,73,58,30.55,30.16,2,0,5,0.00
2013-12-15,23,19,9,20,15,6,90,87,84,30.15,29.42,6,2,13,0.00
2013-12-16,17,8,-9,7,-1,-14,83,68,54,30.17,29.82,4,2,8,0.00
2013-12-17,10,-3,-18,7,-8,-23,95,82,67,30.23,30.00,1,0,2,0.00
2013-12-18,26,15,10,19,12,7,93,87,73,29.99,29.84,1,0,3,0.04
2013-12-19,30,24,19,24,21,17,100,90,77,29.93,29.82,4,1,8,0.00
2013-12-21,48,42,36,46,41,36,99,96,89,29.79,29.69,2,0,6,0.50
2013-12-22,38,35,33,37,34,33,99,98,98,29.89,29.58,4,0,5,0.43
2013-12-23,35,34,31,35,33,24,99,96,76,30.03,29.87,4,0,5,0.00
2013-12-24,31,20,7,24,14,1,86,76,64,30.18,29.98,4,1,8,0.00
2013-12-25,15,8,0,8,1,-4,87,74,58,30.46,30.19,4,1,9,0.00
2013-12-26,26,18,11,24,16,7,95,91,83,30.36,30.01,0,0,2,0.00
2013-12-27,31,23,19,26,20,17,95,88,71,30.11,30.05,3,0,6,0.00
2013-12-28,33,28,15,30,25,13,95,88,80,30.06,29.87,3,0,7,0.00
2013-12-29,35,30,24,33,29,22,98,95,90,29.91,29.48,1,0,2,0.02
2013-12-30,33,19,-1,33,16,-4,98,87,73,30.13,29.47,0,0,0,0.00
2013-12-31,12,6,-1,7,2,-4,92,85,75,30.12,29.94,0,0,0,0.00